Time;durP1;ratioP1;P1;durP2;ratioP2;P2;SDS_P1;SDS_P2;PMS_P1;PMS_P2;Temp;Humidity;BMP_temperature;BMP_pressure;BME280_temperature;BME280_humidity;BME280_pressure;Samples;Min_cycle;Max_cycle;Signal;HPM_P1;HPM_P2
2023/08/16 00:00:38;;;;;;;0.00;0.00;;;;;;;;;;6268126;28;20017;-89
2023/08/16 00:03:38;;;;;;;0.00;0.00;;;;;;;;;;6268778;28;20028;-90
2023/08/16 00:06:42;;;;;;;0.10;0.10;;;;;;;;;;6266072;28;20506;-89
2023/08/16 00:09:43;;;;;;;0.10;0.10;;;;;;;;;;6249130;28;20025;-89
2023/08/16 00:12:44;;;;;;;0.00;0.00;;;;;;;;;;6264828;28;20102;-88
2023/08/16 00:15:44;;;;;;;0.10;0.10;;;;;;;;;;6251638;28;20033;-89
2023/08/16 00:18:44;;;;;;;0.10;0.10;;;;;;;;;;6269395;28;20525;-89
2023/08/16 00:21:45;;;;;;;0.10;0.10;;;;;;;;;;6265814;28;20025;-89
2023/08/16 00:24:45;;;;;;;0.00;0.00;;;;;;;;;;6267887;28;20480;-89
2023/08/16 00:27:45;;;;;;;0.00;0.00;;;;;;;;;;6271488;28;20069;-90
2023/08/16 00:30:45;;;;;;;0.00;0.00;;;;;;;;;;6268365;28;20013;-89
2023/08/16 00:33:46;;;;;;;0.00;0.00;;;;;;;;;;6266663;28;20017;-89
2023/08/16 00:36:46;;;;;;;0.10;0.10;;;;;;;;;;6268780;28;20017;-90
2023/08/16 00:39:46;;;;;;;0.00;0.00;;;;;;;;;;6267384;28;20109;-90
2023/08/16 00:42:46;;;;;;;0.00;0.00;;;;;;;;;;6266329;28;20017;-90
2023/08/16 00:45:48;;;;;;;0.00;0.00;;;;;;;;;;6263012;28;20036;-89
2023/08/16 00:48:49;;;;;;;0.00;0.00;;;;;;;;;;6263808;28;20431;-89
2023/08/16 00:51:49;;;;;;;0.10;0.10;;;;;;;;;;6266943;28;20028;-89
2023/08/16 00:54:49;;;;;;;0.00;0.00;;;;;;;;;;6249101;28;20021;-89
2023/08/16 00:57:50;;;;;;;0.00;0.00;;;;;;;;;;6251128;28;20040;-89
2023/08/16 01:00:50;;;;;;;0.00;0.00;;;;;;;;;;6268288;28;20078;-89
2023/08/16 01:03:50;;;;;;;0.00;0.00;;;;;;;;;;6290620;28;20116;-89
2023/08/16 01:06:57;;;;;;;0.10;0.10;;;;;;;;;;6271226;28;20025;-89
2023/08/16 01:09:57;;;;;;;0.00;0.00;;;;;;;;;;6253034;28;20017;-89
2023/08/16 01:13:02;;;;;;;0.00;0.00;;;;;;;;;;6273210;28;20033;-90
2023/08/16 01:16:07;;;;;;;0.00;0.00;;;;;;;;;;6265022;28;20025;-90
2023/08/16 01:19:09;;;;;;;0.00;0.00;;;;;;;;;;6273103;28;20017;-89
2023/08/16 01:22:12;;;;;;;0.10;0.10;;;;;;;;;;6271547;28;20537;-89
2023/08/16 01:25:32;;;;;;;0.10;0.10;;;;;;;;;;6271112;28;20021;-88
2023/08/16 01:28:34;;;;;;;0.00;0.00;;;;;;;;;;6243367;28;20079;-88
2023/08/16 01:31:34;;;;;;;;;;;;;;;;;;6271171;28;20497;-88
2023/08/16 01:34:34;;;;;;;0.00;0.00;;;;;;;;;;6253342;28;19913;-88
2023/08/16 01:37:34;;;;;;;0.00;0.00;;;;;;;;;;6270484;28;20024;-87
2023/08/16 01:40:38;;;;;;;0.00;0.00;;;;;;;;;;6263343;28;20770;-87
2023/08/16 01:43:41;;;;;;;0.10;0.10;;;;;;;;;;6269628;28;20108;-87
2023/08/16 01:46:43;;;;;;;0.00;0.00;;;;;;;;;;6270022;28;20017;-87
2023/08/16 01:49:43;;;;;;;0.00;0.00;;;;;;;;;;6269901;28;20045;-87
2023/08/16 01:52:46;;;;;;;0.00;0.00;;;;;;;;;;6270308;28;20087;-87
2023/08/16 01:55:46;;;;;;;0.10;0.10;;;;;;;;;;6270131;28;20037;-87
2023/08/16 01:58:49;;;;;;;0.00;0.00;;;;;;;;;;6270543;28;20080;-86
2023/08/16 02:01:49;;;;;;;0.10;0.10;;;;;;;;;;6255104;28;20033;-87
2023/08/16 02:04:50;;;;;;;0.00;0.00;;;;;;;;;;6264989;28;20086;-87
2023/08/16 02:07:50;;;;;;;0.00;0.00;;;;;;;;;;6270285;28;20112;-87
2023/08/16 02:10:51;;;;;;;0.00;0.00;;;;;;;;;;6269847;28;20021;-87
2023/08/16 02:13:52;;;;;;;0.10;0.10;;;;;;;;;;6269834;28;20021;-85
2023/08/16 02:16:52;;;;;;;0.00;0.00;;;;;;;;;;6269035;28;20123;-85
2023/08/16 02:19:53;;;;;;;0.00;0.00;;;;;;;;;;6269026;28;20021;-85
2023/08/16 02:22:53;;;;;;;0.00;0.00;;;;;;;;;;6250717;28;20031;-86
2023/08/16 02:25:54;;;;;;;0.10;0.10;;;;;;;;;;6269362;28;20032;-87
2023/08/16 02:28:54;;;;;;;0.10;0.10;;;;;;;;;;6268433;28;20138;-85
2023/08/16 02:31:54;;;;;;;0.00;0.00;;;;;;;;;;6265987;28;20052;-87
2023/08/16 02:34:54;;;;;;;0.00;0.00;;;;;;;;;;6268373;28;20476;-88
2023/08/16 02:37:54;;;;;;;0.10;0.10;;;;;;;;;;6268648;28;20039;-87
2023/08/16 02:40:55;;;;;;;0.00;0.00;;;;;;;;;;6250035;28;20395;-87
2023/08/16 02:43:55;;;;;;;0.00;0.00;;;;;;;;;;6266780;28;20021;-87
2023/08/16 02:46:55;;;;;;;0.10;0.10;;;;;;;;;;6268630;28;20027;-86
2023/08/16 02:49:56;;;;;;;0.00;0.00;;;;;;;;;;6268080;28;20053;-88
2023/08/16 02:52:56;;;;;;;0.00;0.00;;;;;;;;;;6268381;28;20064;-87
2023/08/16 02:55:56;;;;;;;0.00;0.00;;;;;;;;;;6268537;28;20107;-87
2023/08/16 02:58:56;;;;;;;0.00;0.00;;;;;;;;;;6268174;28;20109;-87
2023/08/16 03:01:56;;;;;;;0.10;0.10;;;;;;;;;;6268057;28;20112;-86
2023/08/16 03:04:56;;;;;;;0.00;0.00;;;;;;;;;;6267753;28;20052;-86
2023/08/16 03:07:57;;;;;;;0.10;0.10;;;;;;;;;;6266357;28;20028;-86
2023/08/16 03:10:57;;;;;;;0.00;0.00;;;;;;;;;;6267496;28;20057;-86
2023/08/16 03:13:57;;;;;;;0.00;0.00;;;;;;;;;;6249515;28;20041;-86
2023/08/16 03:16:58;;;;;;;0.10;0.10;;;;;;;;;;6274073;28;20021;-87
2023/08/16 03:19:59;;;;;;;0.10;0.10;;;;;;;;;;6267446;28;20029;-86
2023/08/16 03:22:59;;;;;;;0.00;0.00;;;;;;;;;;6266364;28;20064;-86
2023/08/16 03:25:59;;;;;;;0.00;0.00;;;;;;;;;;6266925;28;20031;-86
2023/08/16 03:29:00;;;;;;;0.00;0.00;;;;;;;;;;6261731;28;20035;-86
2023/08/16 03:32:00;;;;;;;0.00;0.00;;;;;;;;;;6247897;28;20082;-86
2023/08/16 03:35:00;;;;;;;0.10;0.10;;;;;;;;;;6271682;28;20098;-86
2023/08/16 03:38:00;;;;;;;0.10;0.10;;;;;;;;;;6266519;28;20029;-86
2023/08/16 03:41:02;;;;;;;0.10;0.10;;;;;;;;;;6265072;28;20113;-85
2023/08/16 03:44:03;;;;;;;0.10;0.10;;;;;;;;;;6265149;28;20029;-85
2023/08/16 03:47:04;;;;;;;0.10;0.10;;;;;;;;;;6266753;28;20021;-85
2023/08/16 03:50:05;;;;;;;0.10;0.10;;;;;;;;;;6273211;28;20128;-85
2023/08/16 03:53:05;;;;;;;0.00;0.00;;;;;;;;;;6266828;28;20025;-85
2023/08/16 03:56:05;;;;;;;0.00;0.00;;;;;;;;;;6258703;28;20016;-86
2023/08/16 03:59:05;;;;;;;0.10;0.10;;;;;;;;;;6272687;28;20494;-86
2023/08/16 04:02:05;;;;;;;0.00;0.00;;;;;;;;;;6265251;28;20120;-85
2023/08/16 04:05:10;;;;;;;0.07;0.07;;;;;;;;;;6262412;28;20071;-85
2023/08/16 04:08:10;;;;;;;0.10;0.10;;;;;;;;;;6259224;28;20094;-85
2023/08/16 04:11:10;;;;;;;0.10;0.10;;;;;;;;;;6267330;28;20029;-86
2023/08/16 04:14:10;;;;;;;0.10;0.10;;;;;;;;;;6271751;28;20025;-86
2023/08/16 04:17:10;;;;;;;0.10;0.10;;;;;;;;;;6254254;28;20024;-86
2023/08/16 04:20:11;;;;;;;0.00;0.00;;;;;;;;;;6273405;28;20021;-86
2023/08/16 04:23:11;;;;;;;0.00;0.00;;;;;;;;;;6269720;28;20024;-86
2023/08/16 04:26:12;;;;;;;0.10;0.10;;;;;;;;;;6266178;28;20101;-86
2023/08/16 04:29:12;;;;;;;0.00;0.00;;;;;;;;;;6265143;28;20040;-87
2023/08/16 04:32:12;;;;;;;0.00;0.00;;;;;;;;;;6267066;28;20013;-86
2023/08/16 04:35:13;;;;;;;0.10;0.10;;;;;;;;;;6249859;28;20028;-87
2023/08/16 04:38:14;;;;;;;0.00;0.00;;;;;;;;;;6274566;28;20030;-85
2023/08/16 04:41:15;;;;;;;0.00;0.00;;;;;;;;;;6272866;28;20102;-86
2023/08/16 04:44:15;;;;;;;0.00;0.00;;;;;;;;;;6272032;28;20033;-87
2023/08/16 04:47:17;;;;;;;0.00;0.00;;;;;;;;;;6271518;28;20809;-86
2023/08/16 04:50:17;;;;;;;0.10;0.10;;;;;;;;;;6273964;28;20056;-88
2023/08/16 04:53:17;;;;;;;0.00;0.00;;;;;;;;;;6274977;28;20032;-87
2023/08/16 04:56:17;;;;;;;0.00;0.00;;;;;;;;;;6279275;28;20032;-87
2023/08/16 04:59:17;;;;;;;0.10;0.10;;;;;;;;;;6258504;28;20455;-87
2023/08/16 05:02:18;;;;;;;0.00;0.00;;;;;;;;;;6274220;28;20021;-86
2023/08/16 05:05:18;;;;;;;0.00;0.00;;;;;;;;;;6270669;28;20086;-87
2023/08/16 05:08:18;;;;;;;0.00;0.00;;;;;;;;;;6276959;28;20017;-88
2023/08/16 05:11:18;;;;;;;0.00;0.00;;;;;;;;;;6272335;28;20654;-87
2023/08/16 05:14:19;;;;;;;0.00;0.00;;;;;;;;;;6270533;28;20136;-87
2023/08/16 05:17:19;;;;;;;0.00;0.00;;;;;;;;;;6270204;28;20056;-87
2023/08/16 05:20:20;;;;;;;0.00;0.00;;;;;;;;;;6270809;28;20040;-86
2023/08/16 05:23:20;;;;;;;0.00;0.00;;;;;;;;;;6270155;28;20491;-87
2023/08/16 05:26:20;;;;;;;0.00;0.00;;;;;;;;;;6269533;28;20021;-87
2023/08/16 05:29:20;;;;;;;0.00;0.00;;;;;;;;;;6269978;28;20036;-86
2023/08/16 05:32:21;;;;;;;0.00;0.00;;;;;;;;;;6277552;28;20029;-86
2023/08/16 05:35:22;;;;;;;0.00;0.00;;;;;;;;;;6251746;28;20083;-87
2023/08/16 05:38:23;;;;;;;0.00;0.00;;;;;;;;;;6266363;28;20376;-86
2023/08/16 05:41:23;;;;;;;0.00;0.00;;;;;;;;;;6264491;28;20028;-87
2023/08/16 05:44:23;;;;;;;0.00;0.00;;;;;;;;;;6270089;28;20032;-87
2023/08/16 05:47:23;;;;;;;0.00;0.00;;;;;;;;;;6254188;28;20056;-87
2023/08/16 05:50:24;;;;;;;0.00;0.00;;;;;;;;;;6243036;28;20500;-87
2023/08/16 05:53:24;;;;;;;0.00;0.00;;;;;;;;;;6245199;28;20037;-87
2023/08/16 05:56:24;;;;;;;0.00;0.00;;;;;;;;;;6245003;28;20092;-87
2023/08/16 05:59:24;;;;;;;0.00;0.00;;;;;;;;;;6244676;28;20025;-88
2023/08/16 06:02:24;;;;;;;0.00;0.00;;;;;;;;;;6245489;28;20021;-88
2023/08/16 06:05:25;;;;;;;0.00;0.00;;;;;;;;;;6244659;28;20018;-89
2023/08/16 06:08:25;;;;;;;0.00;0.00;;;;;;;;;;6244180;28;20040;-76
2023/08/16 06:11:25;;;;;;;;;;;;;;;;;;6245372;28;20018;-76
2023/08/16 06:14:25;;;;;;;0.00;0.00;;;;;;;;;;6246724;28;20331;-76
2023/08/16 06:17:25;;;;;;;0.00;0.00;;;;;;;;;;6242199;28;20025;-89
2023/08/16 06:20:26;;;;;;;0.00;0.00;;;;;;;;;;6243861;28;20276;-89
2023/08/16 06:23:26;;;;;;;;;;;;;;;;;;6247294;28;20056;-89
2023/08/16 06:26:26;;;;;;;0.00;0.00;;;;;;;;;;6250338;28;20655;-77
2023/08/16 06:29:26;;;;;;;;;;;;;;;;;;6245552;28;20036;-88
2023/08/16 06:32:27;;;;;;;0.00;0.00;;;;;;;;;;6255143;28;19936;-89
2023/08/16 06:35:27;;;;;;;;;;;;;;;;;;6259294;28;20029;-88
2023/08/16 06:38:27;;;;;;;0.00;0.00;;;;;;;;;;6258496;28;19915;-89
2023/08/16 06:41:28;;;;;;;;;;;;;;;;;;6263950;28;20025;-90
2023/08/16 06:44:28;;;;;;;0.00;0.00;;;;;;;;;;6264684;28;19921;-89
2023/08/16 06:47:28;;;;;;;;;;;;;;;;;;6263258;28;20025;-89
2023/08/16 06:50:29;;;;;;;0.00;0.00;;;;;;;;;;6279819;28;19971;-91
2023/08/16 06:53:30;;;;;;;;;;;;;;;;;;6277105;28;20028;-90
2023/08/16 06:56:30;;;;;;;0.00;0.00;;;;;;;;;;6268718;28;19967;-89
2023/08/16 06:59:31;;;;;;;0.00;0.00;;;;;;;;;;6269726;28;20482;-91
2023/08/16 07:02:31;;;;;;;0.00;0.00;;;;;;;;;;6269708;28;20499;-91
2023/08/16 07:05:32;;;;;;;0.00;0.00;;;;;;;;;;6233131;28;20061;-91
2023/08/16 07:08:32;;;;;;;0.00;0.00;;;;;;;;;;6264931;28;20025;-91
2023/08/16 07:11:32;;;;;;;0.00;0.00;;;;;;;;;;6268063;28;20029;-88
2023/08/16 07:14:34;;;;;;;0.00;0.00;;;;;;;;;;6268558;28;20044;-90
2023/08/16 07:17:34;;;;;;;0.00;0.00;;;;;;;;;;6267521;28;20031;-89
2023/08/16 07:20:34;;;;;;;0.00;0.00;;;;;;;;;;6251495;28;20091;-89
2023/08/16 07:23:34;;;;;;;0.00;0.00;;;;;;;;;;6266825;28;20511;-89
2023/08/16 07:26:35;;;;;;;0.00;0.00;;;;;;;;;;6266333;28;20017;-89
2023/08/16 07:29:36;;;;;;;0.00;0.00;;;;;;;;;;6247472;28;20025;-88
2023/08/16 07:32:36;;;;;;;0.00;0.00;;;;;;;;;;6243670;28;20394;-89
2023/08/16 07:35:36;;;;;;;0.00;0.00;;;;;;;;;;6267684;28;20031;-88
2023/08/16 07:38:37;;;;;;;0.00;0.00;;;;;;;;;;6266005;28;20040;-74
2023/08/16 07:41:37;;;;;;;0.00;0.00;;;;;;;;;;6249050;28;20657;-75
2023/08/16 07:44:37;;;;;;;0.00;0.00;;;;;;;;;;6249337;28;20017;-74
2023/08/16 07:47:37;;;;;;;0.00;0.00;;;;;;;;;;6266235;28;20025;-75
2023/08/16 07:50:37;;;;;;;0.00;0.00;;;;;;;;;;6266028;28;20049;-75
2023/08/16 07:53:39;;;;;;;0.00;0.00;;;;;;;;;;6244737;28;20274;-77
2023/08/16 07:56:39;;;;;;;0.00;0.00;;;;;;;;;;6248097;28;20119;-75
2023/08/16 07:59:40;;;;;;;0.00;0.00;;;;;;;;;;6266801;28;20035;-75
2023/08/16 08:02:40;;;;;;;0.00;0.00;;;;;;;;;;6272301;28;20027;-76
2023/08/16 08:05:41;;;;;;;0.00;0.00;;;;;;;;;;6266725;28;20048;-75
2023/08/16 08:08:42;;;;;;;0.00;0.00;;;;;;;;;;6266497;28;20025;-75
2023/08/16 08:11:42;;;;;;;0.00;0.00;;;;;;;;;;6269922;28;20453;-76
2023/08/16 08:14:42;;;;;;;0.00;0.00;;;;;;;;;;6271798;28;20027;-75
2023/08/16 08:17:42;;;;;;;0.00;0.00;;;;;;;;;;6271180;28;20079;-75
2023/08/16 08:20:42;;;;;;;0.00;0.00;;;;;;;;;;6272031;28;20106;-75
2023/08/16 08:23:43;;;;;;;0.00;0.00;;;;;;;;;;6269839;28;20024;-75
2023/08/16 08:26:43;;;;;;;0.00;0.00;;;;;;;;;;6271907;28;20095;-75
2023/08/16 08:29:43;;;;;;;0.00;0.00;;;;;;;;;;6253340;28;20025;-75
2023/08/16 08:32:43;;;;;;;0.00;0.00;;;;;;;;;;6273437;28;20078;-75
2023/08/16 08:35:43;;;;;;;0.00;0.00;;;;;;;;;;6271960;28;20390;-75
2023/08/16 08:38:44;;;;;;;0.00;0.00;;;;;;;;;;6270695;28;20032;-75
2023/08/16 08:41:45;;;;;;;0.00;0.00;;;;;;;;;;6270773;28;20298;-75
2023/08/16 08:44:46;;;;;;;0.00;0.00;;;;;;;;;;6271215;28;20108;-75
2023/08/16 08:47:47;;;;;;;0.00;0.00;;;;;;;;;;6271429;28;20017;-75
2023/08/16 08:50:47;;;;;;;0.00;0.00;;;;;;;;;;6271188;28;20086;-75
2023/08/16 08:53:48;;;;;;;0.00;0.00;;;;;;;;;;6270913;28;20043;-74
2023/08/16 08:56:50;;;;;;;0.00;0.00;;;;;;;;;;6249875;28;20045;-74
2023/08/16 08:59:53;;;;;;;0.00;0.00;;;;;;;;;;6270218;28;20130;-74
2023/08/16 09:02:54;;;;;;;0.00;0.00;;;;;;;;;;6271597;28;20369;-74
2023/08/16 09:05:56;;;;;;;0.00;0.00;;;;;;;;;;6270445;28;20057;-74
2023/08/16 09:08:56;;;;;;;0.00;0.00;;;;;;;;;;6270111;28;20463;-74
2023/08/16 09:11:57;;;;;;;0.00;0.00;;;;;;;;;;6269983;28;20028;-74
2023/08/16 09:14:57;;;;;;;0.00;0.00;;;;;;;;;;6265840;28;20017;-74
2023/08/16 09:18:07;;;;;;;0.00;0.00;;;;;;;;;;6265674;28;20066;-75
2023/08/16 09:21:07;;;;;;;;;;;;;;;;;;6270602;28;20479;-74
2023/08/16 09:24:08;;;;;;;0.00;0.00;;;;;;;;;;6269707;28;19915;-74
2023/08/16 09:27:08;;;;;;;0.00;0.00;;;;;;;;;;6269988;28;20176;-74
2023/08/16 09:30:11;;;;;;;0.00;0.00;;;;;;;;;;6269468;28;20060;-74
2023/08/16 09:33:17;;;;;;;0.00;0.00;;;;;;;;;;6269769;28;20131;-74
2023/08/16 09:36:17;;;;;;;0.00;0.00;;;;;;;;;;6269988;28;20033;-75
2023/08/16 09:39:18;;;;;;;0.00;0.00;;;;;;;;;;6263891;28;20044;-74
2023/08/16 09:42:18;;;;;;;0.00;0.00;;;;;;;;;;6269585;28;20028;-74
2023/08/16 09:45:34;;;;;;;0.00;0.00;;;;;;;;;;6267094;28;20100;-74
2023/08/16 09:48:35;;;;;;;0.00;0.00;;;;;;;;;;6250274;28;20063;-75
2023/08/16 09:51:36;;;;;;;0.00;0.00;;;;;;;;;;6274349;28;20025;-75
2023/08/16 09:54:36;;;;;;;0.00;0.00;;;;;;;;;;6267131;28;20028;-75
2023/08/16 09:57:37;;;;;;;0.00;0.00;;;;;;;;;;6268886;28;20387;-89
2023/08/16 10:00:37;;;;;;;0.00;0.00;;;;;;;;;;6270247;28;20021;-88
2023/08/16 10:03:38;;;;;;;0.00;0.00;;;;;;;;;;6270105;28;20773;-89
2023/08/16 10:06:41;;;;;;;0.00;0.00;;;;;;;;;;6270215;28;20041;-86
2023/08/16 10:09:41;;;;;;;0.00;0.00;;;;;;;;;;6275380;28;20044;-87
2023/08/16 10:12:44;;;;;;;0.00;0.00;;;;;;;;;;6252179;28;20051;-89
2023/08/16 10:15:47;;;;;;;0.00;0.00;;;;;;;;;;6268860;28;20484;-87
2023/08/16 10:18:47;;;;;;;0.00;0.00;;;;;;;;;;6270405;28;20025;-89
2023/08/16 10:21:48;;;;;;;0.00;0.00;;;;;;;;;;6268796;28;20051;-87
2023/08/16 10:24:50;;;;;;;0.00;0.00;;;;;;;;;;6269736;28;20078;-88
2023/08/16 10:27:52;;;;;;;0.00;0.00;;;;;;;;;;6268680;28;20039;-88
2023/08/16 10:30:54;;;;;;;0.00;0.00;;;;;;;;;;6265763;28;20043;-87
2023/08/16 10:33:55;;;;;;;0.00;0.00;;;;;;;;;;6267904;28;20767;-87
2023/08/16 10:36:55;;;;;;;0.00;0.00;;;;;;;;;;6274251;28;20052;-87
2023/08/16 10:39:56;;;;;;;0.00;0.00;;;;;;;;;;6263285;28;20089;-88
2023/08/16 10:42:57;;;;;;;0.00;0.00;;;;;;;;;;6305399;28;20294;-88
2023/08/16 10:45:57;;;;;;;0.00;0.00;;;;;;;;;;6282591;28;20021;-90
2023/08/16 10:48:58;;;;;;;0.00;0.00;;;;;;;;;;6303266;28;20033;-88
2023/08/16 10:52:00;;;;;;;0.00;0.00;;;;;;;;;;6299509;28;20427;-89
2023/08/16 10:55:00;;;;;;;0.00;0.00;;;;;;;;;;6278194;28;20037;-88
2023/08/16 10:58:01;;;;;;;0.00;0.00;;;;;;;;;;6273686;28;20131;-89
2023/08/16 11:01:04;;;;;;;0.00;0.00;;;;;;;;;;6271404;28;20479;-89
2023/08/16 11:04:06;;;;;;;0.00;0.00;;;;;;;;;;6271773;28;20299;-88
2023/08/16 11:07:09;;;;;;;0.00;0.00;;;;;;;;;;6249171;28;20483;-75
2023/08/16 11:10:09;;;;;;;0.00;0.00;;;;;;;;;;6267603;28;20020;-74
2023/08/16 11:13:10;;;;;;;0.00;0.00;;;;;;;;;;6267573;28;20029;-74
2023/08/16 11:16:11;;;;;;;0.00;0.00;;;;;;;;;;6274330;28;20029;-74
2023/08/16 11:19:13;;;;;;;0.00;0.00;;;;;;;;;;6266127;28;20056;-74
2023/08/16 11:22:14;;;;;;;0.00;0.00;;;;;;;;;;6266639;28;20028;-75
2023/08/16 11:25:15;;;;;;;0.00;0.00;;;;;;;;;;6242788;28;20025;-74
2023/08/16 11:28:17;;;;;;;0.00;0.00;;;;;;;;;;6264570;28;20491;-75
2023/08/16 11:31:23;;;;;;;0.00;0.00;;;;;;;;;;6245055;28;20437;-76
2023/08/16 11:34:23;;;;;;;0.00;0.00;;;;;;;;;;6266019;28;20530;-74
2023/08/16 11:37:24;;;;;;;0.00;0.00;;;;;;;;;;6266271;28;20024;-75
2023/08/16 11:40:24;;;;;;;0.00;0.00;;;;;;;;;;6265254;28;20103;-74
2023/08/16 11:43:25;;;;;;;0.00;0.00;;;;;;;;;;6264218;28;20057;-75
2023/08/16 11:46:27;;;;;;;0.00;0.00;;;;;;;;;;6264511;28;20035;-75
2023/08/16 11:49:28;;;;;;;0.00;0.00;;;;;;;;;;6266175;28;20495;-73
2023/08/16 11:52:28;;;;;;;0.00;0.00;;;;;;;;;;6266179;28;20048;-75
2023/08/16 11:55:33;;;;;;;0.00;0.00;;;;;;;;;;6266184;28;20031;-75
2023/08/16 11:58:43;;;;;;;0.00;0.00;;;;;;;;;;6268298;28;20048;-74
2023/08/16 12:01:44;;;;;;;0.00;0.00;;;;;;;;;;6266286;28;20020;-75
2023/08/16 12:04:44;;;;;;;0.00;0.00;;;;;;;;;;6265078;28;20025;-73
2023/08/16 12:07:48;;;;;;;0.00;0.00;;;;;;;;;;6265830;28;20507;-74
2023/08/16 12:10:55;;;;;;;0.00;0.00;;;;;;;;;;6264301;28;20045;-74
2023/08/16 12:13:55;;;;;;;0.00;0.00;;;;;;;;;;6267857;28;20427;-74
2023/08/16 12:16:55;;;;;;;0.00;0.00;;;;;;;;;;6266601;28;20037;-88
2023/08/16 12:19:55;;;;;;;0.00;0.00;;;;;;;;;;6258594;28;20022;-88
2023/08/16 12:22:55;;;;;;;0.00;0.00;;;;;;;;;;6266084;28;20033;-88
2023/08/16 12:25:57;;;;;;;0.00;0.00;;;;;;;;;;6265459;28;20105;-89
2023/08/16 12:28:57;;;;;;;0.00;0.00;;;;;;;;;;6265524;28;20387;-87
2023/08/16 12:31:57;;;;;;;0.00;0.00;;;;;;;;;;6266943;28;20005;-88
2023/08/16 12:34:57;;;;;;;0.00;0.00;;;;;;;;;;6266171;28;20082;-89
2023/08/16 12:37:58;;;;;;;0.00;0.00;;;;;;;;;;6266521;28;20383;-74
2023/08/16 12:40:59;;;;;;;0.00;0.00;;;;;;;;;;6265195;28;20399;-74
2023/08/16 12:43:59;;;;;;;0.00;0.00;;;;;;;;;;6266138;28;20025;-74
2023/08/16 12:46:59;;;;;;;0.00;0.00;;;;;;;;;;6278320;28;20028;-74
2023/08/16 12:50:00;;;;;;;0.00;0.00;;;;;;;;;;6269386;28;20071;-74
2023/08/16 12:53:00;;;;;;;0.00;0.00;;;;;;;;;;6266840;28;20028;-74
2023/08/16 12:56:00;;;;;;;0.00;0.00;;;;;;;;;;6281966;28;20024;-74
2023/08/16 12:59:00;;;;;;;0.00;0.00;;;;;;;;;;6251670;28;20557;-74
2023/08/16 13:02:01;;;;;;;0.00;0.00;;;;;;;;;;6270950;28;20268;-74
2023/08/16 13:05:01;;;;;;;0.00;0.00;;;;;;;;;;6270092;28;20021;-74
2023/08/16 13:08:01;;;;;;;0.00;0.00;;;;;;;;;;6270419;28;20016;-74
2023/08/16 13:11:02;;;;;;;0.00;0.00;;;;;;;;;;6270727;28;20059;-74
2023/08/16 13:14:05;;;;;;;0.00;0.00;;;;;;;;;;6270751;28;20433;-74
2023/08/16 13:17:07;;;;;;;0.00;0.00;;;;;;;;;;6269561;28;20529;-74
2023/08/16 13:20:10;;;;;;;0.00;0.00;;;;;;;;;;6270200;28;20017;-74
2023/08/16 13:23:11;;;;;;;0.00;0.00;;;;;;;;;;6275583;28;20024;-74
2023/08/16 13:26:11;;;;;;;0.00;0.00;;;;;;;;;;6270288;28;20107;-74
2023/08/16 13:29:11;;;;;;;0.00;0.00;;;;;;;;;;6269971;28;20410;-88
2023/08/16 13:32:11;;;;;;;0.00;0.00;;;;;;;;;;6270097;28;20045;-88
2023/08/16 13:35:11;;;;;;;0.00;0.00;;;;;;;;;;6272072;28;20017;-88
2023/08/16 13:38:12;;;;;;;0.00;0.00;;;;;;;;;;6269713;28;20024;-74
2023/08/16 13:41:12;;;;;;;0.00;0.00;;;;;;;;;;6269607;28;20025;-73
2023/08/16 13:44:12;;;;;;;0.00;0.00;;;;;;;;;;6268006;28;20108;-74
2023/08/16 13:47:13;;;;;;;0.00;0.00;;;;;;;;;;6248134;28;20013;-89
2023/08/16 13:50:13;;;;;;;0.00;0.00;;;;;;;;;;6269088;28;20041;-89
2023/08/16 13:53:13;;;;;;;0.00;0.00;;;;;;;;;;6269485;28;20017;-88
2023/08/16 13:56:13;;;;;;;0.00;0.00;;;;;;;;;;6251471;28;20048;-90
2023/08/16 13:59:14;;;;;;;0.00;0.00;;;;;;;;;;6269658;28;20017;-88
2023/08/16 14:02:14;;;;;;;0.00;0.00;;;;;;;;;;6270122;28;21380;-89
2023/08/16 14:05:15;;;;;;;0.00;0.00;;;;;;;;;;6269406;28;20028;-88
2023/08/16 14:08:16;;;;;;;0.00;0.00;;;;;;;;;;6269463;28;20017;-88
2023/08/16 14:11:17;;;;;;;0.00;0.00;;;;;;;;;;6268983;28;20025;-89
2023/08/16 14:14:17;;;;;;;0.00;0.00;;;;;;;;;;6270176;28;20051;-88
2023/08/16 14:17:18;;;;;;;0.00;0.00;;;;;;;;;;6275218;28;20399;-89
2023/08/16 14:20:18;;;;;;;0.00;0.00;;;;;;;;;;6277476;28;20074;-89
2023/08/16 14:23:18;;;;;;;0.00;0.00;;;;;;;;;;6282657;28;20021;-90
2023/08/16 14:26:20;;;;;;;0.00;0.00;;;;;;;;;;6281853;28;20021;-89
2023/08/16 14:29:20;;;;;;;0.00;0.00;;;;;;;;;;6281946;28;20255;-89
2023/08/16 14:32:20;;;;;;;0.00;0.00;;;;;;;;;;6284078;28;20347;-89
2023/08/16 14:35:20;;;;;;;0.00;0.00;;;;;;;;;;6280695;28;20059;-90
2023/08/16 14:38:21;;;;;;;0.00;0.00;;;;;;;;;;6279499;28;20566;-92
2023/08/16 14:41:21;;;;;;;0.00;0.00;;;;;;;;;;6250759;28;20306;-92
2023/08/16 14:44:21;;;;;;;0.00;0.00;;;;;;;;;;6267258;28;20344;-90
2023/08/16 14:47:21;;;;;;;0.00;0.00;;;;;;;;;;6267571;28;20041;-89
2023/08/16 14:50:22;;;;;;;0.00;0.00;;;;;;;;;;6253772;28;20052;-89
2023/08/16 14:53:22;;;;;;;0.00;0.00;;;;;;;;;;6269567;28;20112;-89
2023/08/16 14:56:22;;;;;;;0.00;0.00;;;;;;;;;;6266939;28;20559;-89
2023/08/16 14:59:23;;;;;;;0.00;0.00;;;;;;;;;;6265593;28;20037;-89
2023/08/16 15:02:23;;;;;;;0.00;0.00;;;;;;;;;;6264264;28;20131;-90
2023/08/16 15:05:23;;;;;;;0.00;0.00;;;;;;;;;;6267298;28;20098;-88
2023/08/16 15:08:23;;;;;;;0.00;0.00;;;;;;;;;;6268285;28;20028;-88
2023/08/16 15:11:24;;;;;;;0.00;0.00;;;;;;;;;;6266234;28;20021;-89
2023/08/16 15:14:25;;;;;;;0.00;0.00;;;;;;;;;;6268276;28;20082;-91
2023/08/16 15:17:25;;;;;;;0.00;0.00;;;;;;;;;;6267410;28;20071;-89
2023/08/16 15:20:25;;;;;;;0.00;0.00;;;;;;;;;;6267124;28;20407;-93
2023/08/16 15:23:28;;;;;;;0.00;0.00;;;;;;;;;;6268498;28;20040;-90
2023/08/16 15:26:28;;;;;;;0.00;0.00;;;;;;;;;;6265707;28;20050;-91
2023/08/16 15:29:29;;;;;;;0.00;0.00;;;;;;;;;;6268783;28;20032;-90
2023/08/16 15:32:29;;;;;;;0.00;0.00;;;;;;;;;;6267376;28;20044;-90
2023/08/16 15:35:29;;;;;;;0.00;0.00;;;;;;;;;;6250322;28;20028;-89
2023/08/16 15:38:35;;;;;;;0.00;0.00;;;;;;;;;;6267844;28;20029;-89
2023/08/16 15:41:36;;;;;;;0.00;0.00;;;;;;;;;;6266964;28;20612;-91
2023/08/16 15:44:36;;;;;;;0.00;0.00;;;;;;;;;;6252091;28;20029;-91
2023/08/16 15:47:37;;;;;;;0.00;0.00;;;;;;;;;;6267367;28;20756;-90
2023/08/16 15:50:37;;;;;;;0.00;0.00;;;;;;;;;;6267479;28;20036;-91
2023/08/16 15:53:38;;;;;;;0.00;0.00;;;;;;;;;;6266785;28;20056;-90
2023/08/16 15:56:38;;;;;;;0.00;0.00;;;;;;;;;;6267608;28;20479;-91
2023/08/16 15:59:38;;;;;;;0.00;0.00;;;;;;;;;;6266774;28;20032;-92
2023/08/16 16:02:38;;;;;;;0.00;0.00;;;;;;;;;;6268108;28;20561;-89
2023/08/16 16:05:38;;;;;;;0.00;0.00;;;;;;;;;;6266739;28;20016;-91
2023/08/16 16:08:39;;;;;;;0.00;0.00;;;;;;;;;;6267103;28;20162;-74
2023/08/16 16:11:39;;;;;;;0.00;0.00;;;;;;;;;;6267368;28;20021;-74
2023/08/16 16:14:39;;;;;;;0.00;0.00;;;;;;;;;;6266460;28;20175;-74
2023/08/16 16:17:40;;;;;;;0.00;0.00;;;;;;;;;;6264274;28;20025;-73
2023/08/16 16:20:41;;;;;;;0.00;0.00;;;;;;;;;;6265061;28;20029;-73
2023/08/16 16:23:41;;;;;;;0.00;0.00;;;;;;;;;;6266432;28;20036;-73
2023/08/16 16:26:41;;;;;;;0.00;0.00;;;;;;;;;;6267267;28;20565;-74
2023/08/16 16:29:41;;;;;;;0.00;0.00;;;;;;;;;;6266430;28;20028;-73
2023/08/16 16:32:43;;;;;;;0.00;0.00;;;;;;;;;;6252271;28;20048;-73
2023/08/16 16:35:44;;;;;;;0.00;0.00;;;;;;;;;;6269845;28;20033;-73
2023/08/16 16:38:46;;;;;;;0.00;0.00;;;;;;;;;;6272891;28;20066;-73
2023/08/16 16:41:47;;;;;;;0.00;0.00;;;;;;;;;;6270820;28;20032;-73
2023/08/16 16:44:48;;;;;;;0.00;0.00;;;;;;;;;;6271325;28;20021;-73
2023/08/16 16:47:48;;;;;;;0.00;0.00;;;;;;;;;;6269772;28;20112;-73
2023/08/16 16:50:48;;;;;;;0.00;0.00;;;;;;;;;;6270705;28;20047;-73
2023/08/16 16:53:49;;;;;;;;;;;;;;;;;;6251545;28;20494;-73
2023/08/16 16:56:49;;;;;;;0.00;0.00;;;;;;;;;;6270450;28;19966;-73
2023/08/16 16:59:49;;;;;;;;;;;;;;;;;;6270760;28;20028;-73
2023/08/16 17:02:49;;;;;;;0.00;0.00;;;;;;;;;;6270006;28;19998;-73
2023/08/16 17:05:50;;;;;;;;;;;;;;;;;;6269882;28;20080;-73
2023/08/16 17:08:50;;;;;;;0.00;0.00;;;;;;;;;;6249157;28;19919;-73
2023/08/16 17:11:50;;;;;;;;;;;;;;;;;;6269291;28;20013;-73
2023/08/16 17:14:50;;;;;;;0.00;0.00;;;;;;;;;;6265461;28;20298;-73
2023/08/16 17:17:50;;;;;;;0.00;0.00;;;;;;;;;;6272892;28;20017;-89
2023/08/16 17:20:50;;;;;;;;;;;;;;;;;;6269662;28;20021;-88
2023/08/16 17:23:51;;;;;;;0.00;0.00;;;;;;;;;;6270663;28;19920;-90
2023/08/16 17:26:52;;;;;;;0.00;0.00;;;;;;;;;;6272520;28;20105;-89
2023/08/16 17:29:52;;;;;;;0.00;0.00;;;;;;;;;;6275711;28;20009;-89
2023/08/16 17:32:52;;;;;;;0.00;0.00;;;;;;;;;;6269509;28;20103;-89
2023/08/16 17:35:53;;;;;;;0.00;0.00;;;;;;;;;;6280706;28;20040;-90
2023/08/16 17:38:56;;;;;;;0.00;0.00;;;;;;;;;;6300568;28;20060;-91
2023/08/16 17:41:57;;;;;;;0.00;0.00;;;;;;;;;;6302664;28;20044;-91
2023/08/16 17:44:57;;;;;;;0.00;0.00;;;;;;;;;;6297546;28;20025;-91
2023/08/16 17:47:57;;;;;;;0.00;0.00;;;;;;;;;;6298557;28;20451;-89
2023/08/16 17:50:57;;;;;;;0.00;0.00;;;;;;;;;;6284571;28;20045;-89
2023/08/16 17:53:58;;;;;;;0.00;0.00;;;;;;;;;;6270666;28;20521;-89
2023/08/16 17:56:58;;;;;;;0.00;0.00;;;;;;;;;;6290650;28;20024;-90
2023/08/16 17:59:58;;;;;;;0.00;0.00;;;;;;;;;;6276556;28;20029;-90
2023/08/16 18:02:58;;;;;;;0.00;0.00;;;;;;;;;;6286453;28;20084;-89
2023/08/16 18:05:59;;;;;;;0.00;0.00;;;;;;;;;;6280349;28;20044;-90
2023/08/16 18:08:59;;;;;;;0.00;0.00;;;;;;;;;;6279901;28;20005;-90